Time;durP1;ratioP1;P1;durP2;ratioP2;P2;SDS_P1;SDS_P2;PMS_P1;PMS_P2;Temp;Humidity;BMP_temperature;BMP_pressure;BME280_temperature;BME280_humidity;BME280_pressure;Samples;Min_cycle;Max_cycle;Signal;HPM_P1;HPM_P2
2020/12/18 00:00:17;;;;;;;0.00;0.00;;;;;;;;;;4947827;28;20116;-66
2020/12/18 00:02:43;;;;;;;0.20;0.20;;;;;;;;;;4945037;28;20081;-66
2020/12/18 00:05:08;;;;;;;0.10;0.10;;;;;;;;;;4912266;28;20869;-68
2020/12/18 00:07:34;;;;;;;0.40;0.40;;;;;;;;;;4964063;28;20093;-66
2020/12/18 00:09:59;;;;;;;0.10;0.10;;;;;;;;;;4951663;28;20030;-68
2020/12/18 00:12:25;;;;;;;0.40;0.40;;;;;;;;;;4931462;28;20031;-67
2020/12/18 00:14:51;;;;;;;0.00;0.00;;;;;;;;;;4941849;28;20039;-66
2020/12/18 00:17:20;;;;;;;0.05;0.05;;;;;;;;;;4947656;28;20035;-66
2020/12/18 00:19:45;;;;;;;0.10;0.10;;;;;;;;;;4962717;28;20039;-68
2020/12/18 00:22:13;;;;;;;0.10;0.10;;;;;;;;;;4945762;28;20031;-67
2020/12/18 00:24:44;;;;;;;0.45;0.45;;;;;;;;;;4944735;28;20047;-68
2020/12/18 00:27:12;;;;;;;0.32;0.32;;;;;;;;;;4932793;28;20912;-66
2020/12/18 00:29:37;;;;;;;0.32;0.32;;;;;;;;;;4948383;28;20042;-68
2020/12/18 00:32:04;;;;;;;0.00;0.00;;;;;;;;;;4948415;28;20186;-66
2020/12/18 00:34:29;;;;;;;0.30;0.30;;;;;;;;;;4948415;28;20113;-67
2020/12/18 00:36:57;;;;;;;0.68;0.68;;;;;;;;;;4952899;28;20532;-68
2020/12/18 00:39:25;;;;;;;1.20;1.02;;;;;;;;;;4951472;28;20546;-67
2020/12/18 00:41:58;;;;;;;0.00;0.00;;;;;;;;;;4935896;28;20046;-68
2020/12/18 00:44:23;;;;;;;0.00;0.00;;;;;;;;;;4946086;28;20113;-67
2020/12/18 00:46:53;;;;;;;0.75;0.75;;;;;;;;;;4955397;28;20562;-67
2020/12/18 00:49:19;;;;;;;3.92;0.73;;;;;;;;;;4947509;28;20035;-68
2020/12/18 00:51:44;;;;;;;2.85;1.58;;;;;;;;;;4933082;28;20370;-67
2020/12/18 00:54:10;;;;;;;0.00;0.00;;;;;;;;;;4947252;28;20105;-68
2020/12/18 00:56:36;;;;;;;0.00;0.00;;;;;;;;;;4912841;28;20041;-66
2020/12/18 00:59:03;;;;;;;1.10;0.55;;;;;;;;;;4924293;28;20808;-67
2020/12/18 01:01:28;;;;;;;0.17;0.17;;;;;;;;;;4911137;28;20513;-67
2020/12/18 01:03:56;;;;;;;0.35;0.35;;;;;;;;;;4929013;28;20034;-69
2020/12/18 01:06:22;;;;;;;1.08;0.82;;;;;;;;;;4932400;28;20679;-63
2020/12/18 01:08:51;;;;;;;0.32;0.32;;;;;;;;;;4954257;28;20122;-68
2020/12/18 01:11:22;;;;;;;0.00;0.00;;;;;;;;;;4928707;28;20031;-68
2020/12/18 01:13:48;;;;;;;0.00;0.00;;;;;;;;;;4929632;28;20031;-67
2020/12/18 01:16:15;;;;;;;0.65;0.65;;;;;;;;;;4947002;28;20052;-67
2020/12/18 01:18:41;;;;;;;0.10;0.10;;;;;;;;;;4926688;28;20040;-67
2020/12/18 01:21:07;;;;;;;0.00;0.00;;;;;;;;;;4947211;28;20023;-67
2020/12/18 01:23:35;;;;;;;0.50;0.50;;;;;;;;;;4944569;28;20392;-66
2020/12/18 01:26:04;;;;;;;0.00;0.00;;;;;;;;;;4932795;28;20054;-68
2020/12/18 01:28:33;;;;;;;0.22;0.22;;;;;;;;;;4947185;28;20027;-67
2020/12/18 01:31:03;;;;;;;1.17;0.70;;;;;;;;;;4943784;28;20045;-68
2020/12/18 01:33:34;;;;;;;0.95;0.80;;;;;;;;;;4927128;28;20065;-67
2020/12/18 01:36:00;;;;;;;0.00;0.00;;;;;;;;;;4947538;28;20026;-67
2020/12/18 01:38:31;;;;;;;0.00;0.00;;;;;;;;;;4946749;28;20077;-68
2020/12/18 01:40:56;;;;;;;1.20;1.10;;;;;;;;;;4943058;28;20594;-68
2020/12/18 01:43:28;;;;;;;0.00;0.00;;;;;;;;;;4942781;28;20023;-68
2020/12/18 01:46:01;;;;;;;0.00;0.00;;;;;;;;;;4945811;28;20543;-69
2020/12/18 01:48:29;;;;;;;0.20;0.20;;;;;;;;;;4940701;28;20060;-68
2020/12/18 01:50:55;;;;;;;3.17;1.27;;;;;;;;;;4931302;28;20544;-69
2020/12/18 01:53:26;;;;;;;0.00;0.00;;;;;;;;;;4929004;28;20489;-67
2020/12/18 01:55:52;;;;;;;0.45;0.45;;;;;;;;;;4951030;28;20078;-68
2020/12/18 01:58:21;;;;;;;0.10;0.10;;;;;;;;;;4927951;28;20067;-67
2020/12/18 02:00:51;;;;;;;0.30;0.30;;;;;;;;;;4930070;28;20023;-67
2020/12/18 02:03:16;;;;;;;0.08;0.08;;;;;;;;;;4932051;28;20027;-67
2020/12/18 02:05:42;;;;;;;0.50;0.50;;;;;;;;;;4943458;28;20042;-67
2020/12/18 02:08:10;;;;;;;0.20;0.20;;;;;;;;;;4949264;28;20072;-67
2020/12/18 02:10:38;;;;;;;0.20;0.20;;;;;;;;;;4946762;28;20270;-67
2020/12/18 02:13:06;;;;;;;0.10;0.10;;;;;;;;;;4943408;28;20337;-67
2020/12/18 02:15:31;;;;;;;0.52;0.52;;;;;;;;;;4943606;28;20030;-66
2020/12/18 02:18:01;;;;;;;0.08;0.08;;;;;;;;;;4945760;28;20036;-67
2020/12/18 02:20:29;;;;;;;0.00;0.00;;;;;;;;;;4943929;28;20479;-67
2020/12/18 02:22:54;;;;;;;0.00;0.00;;;;;;;;;;4946274;28;20078;-68
2020/12/18 02:25:24;;;;;;;0.08;0.08;;;;;;;;;;4929596;28;20054;-68
2020/12/18 02:27:51;;;;;;;0.00;0.00;;;;;;;;;;4927260;28;20034;-68
2020/12/18 02:30:17;;;;;;;0.00;0.00;;;;;;;;;;4944049;28;20026;-68
2020/12/18 02:32:42;;;;;;;0.40;0.40;;;;;;;;;;4941416;28;20351;-67
2020/12/18 02:35:12;;;;;;;0.35;0.35;;;;;;;;;;4941246;28;20144;-68
2020/12/18 02:37:40;;;;;;;0.10;0.10;;;;;;;;;;4929880;28;20034;-68
2020/12/18 02:40:06;;;;;;;0.30;0.30;;;;;;;;;;4945782;28;20029;-68
2020/12/18 02:42:34;;;;;;;0.00;0.00;;;;;;;;;;4928573;28;20569;-68
2020/12/18 02:45:02;;;;;;;0.20;0.20;;;;;;;;;;4928386;28;20112;-68
2020/12/18 02:47:33;;;;;;;0.00;0.00;;;;;;;;;;4942300;28;20430;-67
2020/12/18 02:50:01;;;;;;;0.22;0.22;;;;;;;;;;4944039;28;20051;-67
2020/12/18 02:52:32;;;;;;;0.70;0.70;;;;;;;;;;4925223;28;20990;-69
2020/12/18 02:54:57;;;;;;;0.90;0.73;;;;;;;;;;4941308;28;20089;-67
2020/12/18 02:57:28;;;;;;;0.38;0.38;;;;;;;;;;4927349;28;20403;-68
2020/12/18 02:59:58;;;;;;;0.40;0.40;;;;;;;;;;4946564;28;20039;-68
2020/12/18 03:02:23;;;;;;;0.60;0.60;;;;;;;;;;4939340;28;20307;-67
2020/12/18 03:04:49;;;;;;;5.63;1.65;;;;;;;;;;4925867;28;20027;-68
2020/12/18 03:07:15;;;;;;;0.10;0.10;;;;;;;;;;4928920;28;20319;-66
2020/12/18 03:09:43;;;;;;;0.00;0.00;;;;;;;;;;4948333;28;20045;-68
2020/12/18 03:12:10;;;;;;;0.10;0.10;;;;;;;;;;4927390;28;20109;-66
2020/12/18 03:14:38;;;;;;;0.43;0.43;;;;;;;;;;4924046;28;20121;-66
2020/12/18 03:17:04;;;;;;;0.00;0.00;;;;;;;;;;4932408;28;20101;-67
2020/12/18 03:19:30;;;;;;;0.32;0.32;;;;;;;;;;4938779;28;20357;-67
2020/12/18 03:21:58;;;;;;;0.10;0.10;;;;;;;;;;4908708;28;20066;-66
2020/12/18 03:24:26;;;;;;;0.10;0.10;;;;;;;;;;4958301;28;20074;-68
2020/12/18 03:26:56;;;;;;;0.00;0.00;;;;;;;;;;4939463;28;20042;-67
2020/12/18 03:29:24;;;;;;;0.43;0.43;;;;;;;;;;4932067;28;20023;-68
2020/12/18 03:31:52;;;;;;;0.10;0.10;;;;;;;;;;4946769;28;20042;-67
2020/12/18 03:34:20;;;;;;;0.08;0.08;;;;;;;;;;4911030;28;20041;-68
2020/12/18 03:36:50;;;;;;;0.40;0.40;;;;;;;;;;4944270;28;20034;-68
2020/12/18 03:39:15;;;;;;;0.00;0.00;;;;;;;;;;4917220;28;20034;-68
2020/12/18 03:41:43;;;;;;;0.05;0.05;;;;;;;;;;4933421;28;20065;-67
2020/12/18 03:44:11;;;;;;;0.47;0.40;;;;;;;;;;4950446;28;20541;-67
2020/12/18 03:46:39;;;;;;;0.05;0.05;;;;;;;;;;4933161;28;20111;-68
2020/12/18 03:49:07;;;;;;;0.00;0.00;;;;;;;;;;4964954;28;20338;-67
2020/12/18 03:51:34;;;;;;;0.00;0.00;;;;;;;;;;4917152;28;20503;-67
2020/12/18 03:54:00;;;;;;;1.15;1.08;;;;;;;;;;4948481;28;20030;-67
2020/12/18 03:56:26;;;;;;;0.15;0.15;;;;;;;;;;4945804;28;20034;-67
2020/12/18 03:58:53;;;;;;;0.30;0.30;;;;;;;;;;4929741;28;20062;-67
2020/12/18 04:01:26;;;;;;;0.52;0.52;;;;;;;;;;4965034;28;20054;-68
2020/12/18 04:03:56;;;;;;;0.52;0.52;;;;;;;;;;4927840;28;20027;-67
2020/12/18 04:06:24;;;;;;;0.32;0.32;;;;;;;;;;4961157;28;20117;-67
2020/12/18 04:08:49;;;;;;;1.02;0.60;;;;;;;;;;4931123;28;20675;-66
2020/12/18 04:14:53;;;;;;;1.55;1.27;;;;;;;;;;4945721;28;20465;-67
2020/12/18 04:17:19;;;;;;;0.25;0.25;;;;;;;;;;4949022;28;20519;-67
2020/12/18 04:19:44;;;;;;;0.10;0.10;;;;;;;;;;4934814;28;20056;-67
2020/12/18 04:22:10;;;;;;;1.92;1.45;;;;;;;;;;4940041;28;20042;-67
2020/12/18 04:24:37;;;;;;;0.10;0.10;;;;;;;;;;4946629;28;20051;-66
2020/12/18 04:27:08;;;;;;;0.20;0.20;;;;;;;;;;4928729;28;20032;-66
2020/12/18 04:29:39;;;;;;;0.13;0.13;;;;;;;;;;4944548;28;20038;-66
2020/12/18 04:32:10;;;;;;;0.40;0.40;;;;;;;;;;4929002;28;20042;-66
2020/12/18 04:34:38;;;;;;;0.00;0.00;;;;;;;;;;4945141;28;20031;-68
2020/12/18 04:37:06;;;;;;;0.28;0.28;;;;;;;;;;4927662;28;20030;-68
2020/12/18 04:39:36;;;;;;;0.32;0.32;;;;;;;;;;4951038;28;20037;-68
2020/12/18 04:42:02;;;;;;;0.00;0.00;;;;;;;;;;4927676;28;20034;-68
2020/12/18 04:44:29;;;;;;;2.17;0.90;;;;;;;;;;4943296;28;20106;-67
2020/12/18 04:46:58;;;;;;;1.30;0.38;;;;;;;;;;4950498;28;20106;-66
2020/12/18 04:49:29;;;;;;;0.75;0.75;;;;;;;;;;4941584;28;20026;-66
2020/12/18 04:52:00;;;;;;;0.03;0.03;;;;;;;;;;4962727;28;20878;-65
2020/12/18 04:54:26;;;;;;;0.17;0.17;;;;;;;;;;4948722;28;20035;-66
2020/12/18 04:56:55;;;;;;;0.35;0.35;;;;;;;;;;4944638;28;20043;-67
2020/12/18 04:59:22;;;;;;;0.10;0.10;;;;;;;;;;4961009;28;20061;-67
2020/12/18 05:01:52;;;;;;;0.98;0.98;;;;;;;;;;4955860;28;22078;-67
2020/12/18 05:04:19;;;;;;;1.02;1.00;;;;;;;;;;4939017;28;20023;-67
2020/12/18 05:06:44;;;;;;;0.00;0.00;;;;;;;;;;4948527;28;20022;-67
2020/12/18 05:09:14;;;;;;;0.00;0.00;;;;;;;;;;4947994;28;20121;-67
2020/12/18 05:11:45;;;;;;;0.08;0.08;;;;;;;;;;4950133;28;20042;-67
2020/12/18 05:14:12;;;;;;;0.15;0.15;;;;;;;;;;4943953;28;20118;-67
2020/12/18 05:16:39;;;;;;;0.10;0.10;;;;;;;;;;4942373;28;20137;-68
2020/12/18 05:19:07;;;;;;;0.00;0.00;;;;;;;;;;4939162;28;20042;-67
2020/12/18 05:21:40;;;;;;;0.00;0.00;;;;;;;;;;4945051;28;20035;-67
2020/12/18 05:24:10;;;;;;;0.00;0.00;;;;;;;;;;4945987;28;20027;-67
2020/12/18 05:26:35;;;;;;;1.92;0.98;;;;;;;;;;4963225;28;20410;-65
2020/12/18 05:29:05;;;;;;;0.22;0.22;;;;;;;;;;4945885;28;21910;-66
2020/12/18 05:31:31;;;;;;;0.10;0.10;;;;;;;;;;4947251;28;21707;-65
2020/12/18 05:34:00;;;;;;;0.00;0.00;;;;;;;;;;4947663;28;20034;-66
2020/12/18 05:36:31;;;;;;;0.65;0.65;;;;;;;;;;4927577;28;20035;-66
2020/12/18 05:39:00;;;;;;;0.65;0.65;;;;;;;;;;4950091;28;20031;-66
2020/12/18 05:41:26;;;;;;;0.35;0.32;;;;;;;;;;4951145;28;20022;-66
2020/12/18 05:43:54;;;;;;;0.75;0.75;;;;;;;;;;4948260;28;20030;-66
2020/12/18 05:46:29;;;;;;;0.68;0.38;;;;;;;;;;4948026;28;20515;-66
2020/12/18 05:49:00;;;;;;;0.00;0.00;;;;;;;;;;4924904;28;20042;-66
2020/12/18 05:51:31;;;;;;;0.13;0.13;;;;;;;;;;4937727;28;20034;-66
2020/12/18 05:54:28;;;;;;;0.00;0.00;;;;;;;;;;4946081;28;20479;-66
2020/12/18 05:56:54;;;;;;;0.10;0.10;;;;;;;;;;4942034;28;20397;-66
2020/12/18 05:59:25;;;;;;;0.30;0.30;;;;;;;;;;4941515;28;20026;-67
2020/12/18 06:01:51;;;;;;;0.00;0.00;;;;;;;;;;4944240;28;20240;-67
2020/12/18 06:04:18;;;;;;;0.20;0.20;;;;;;;;;;4943915;28;20048;-67
2020/12/18 06:06:54;;;;;;;0.17;0.17;;;;;;;;;;4942631;28;20038;-67
2020/12/18 06:09:23;;;;;;;0.88;0.88;;;;;;;;;;4947185;28;20054;-67
2020/12/18 06:11:50;;;;;;;0.28;0.28;;;;;;;;;;4944630;28;20418;-66
2020/12/18 06:14:16;;;;;;;2.20;1.13;;;;;;;;;;4946534;28;20478;-66
2020/12/18 06:16:51;;;;;;;0.40;0.40;;;;;;;;;;4942007;28;20446;-67
2020/12/18 06:19:17;;;;;;;;;;;;;;;;;;4941683;28;20825;-66
2020/12/18 06:21:51;;;;;;;1.02;0.68;;;;;;;;;;4944514;28;20466;-66
2020/12/18 06:24:17;;;;;;;0.00;0.00;;;;;;;;;;4937037;28;20042;-66
2020/12/18 06:26:54;;;;;;;0.00;0.00;;;;;;;;;;4960128;28;20161;-66
2020/12/18 06:29:25;;;;;;;0.35;0.35;;;;;;;;;;4947039;28;20596;-66
2020/12/18 06:31:50;;;;;;;0.00;0.00;;;;;;;;;;4943317;28;20058;-66
2020/12/18 06:34:22;;;;;;;0.00;0.00;;;;;;;;;;4944387;28;21043;-66
2020/12/18 06:36:51;;;;;;;0.17;0.17;;;;;;;;;;4946505;28;20461;-68
2020/12/18 06:39:19;;;;;;;0.05;0.05;;;;;;;;;;4928895;28;20458;-66
2020/12/18 06:41:47;;;;;;;0.05;0.05;;;;;;;;;;4946259;28;20536;-67
2020/12/18 06:44:35;;;;;;;0.10;0.10;;;;;;;;;;4942113;28;20109;-67
2020/12/18 06:50:37;;;;;;;0.00;0.00;;;;;;;;;;4943758;28;20053;-66
2020/12/18 06:53:13;;;;;;;0.00;0.00;;;;;;;;;;4924125;28;20046;-68
2020/12/18 06:55:44;;;;;;;0.90;0.90;;;;;;;;;;4945041;28;20041;-67
2020/12/18 06:58:19;;;;;;;0.13;0.13;;;;;;;;;;4930726;28;20034;-67
2020/12/18 07:00:44;;;;;;;0.08;0.08;;;;;;;;;;4944112;28;20716;-66
2020/12/18 07:03:10;;;;;;;0.60;0.60;;;;;;;;;;4944627;28;20982;-68
2020/12/18 07:05:38;;;;;;;0.10;0.10;;;;;;;;;;4943709;28;20042;-66
2020/12/18 07:08:07;;;;;;;0.50;0.40;;;;;;;;;;4945964;28;20031;-64
2020/12/18 07:10:37;;;;;;;0.00;0.00;;;;;;;;;;4944552;28;20121;-69
2020/12/18 07:13:03;;;;;;;0.00;0.00;;;;;;;;;;4931033;28;20034;-67
2020/12/18 07:15:46;;;;;;;0.15;0.13;;;;;;;;;;4948907;28;20066;-66
2020/12/18 07:18:22;;;;;;;0.20;0.20;;;;;;;;;;4925108;28;20209;-66
2020/12/18 07:20:51;;;;;;;0.20;0.17;;;;;;;;;;4925573;28;20089;-66
2020/12/18 07:23:24;;;;;;;0.13;0.13;;;;;;;;;;4942015;28;20026;-66
2020/12/18 07:25:52;;;;;;;0.00;0.00;;;;;;;;;;4940107;28;20066;-64
2020/12/18 07:28:22;;;;;;;0.13;0.13;;;;;;;;;;4947113;28;20238;-67
2020/12/18 07:30:51;;;;;;;0.00;0.00;;;;;;;;;;4941138;28;20030;-66
2020/12/18 07:33:19;;;;;;;0.10;0.10;;;;;;;;;;4919336;28;20039;-65
2020/12/18 07:35:54;;;;;;;0.00;0.00;;;;;;;;;;4926822;28;20459;-67
2020/12/18 07:38:20;;;;;;;0.30;0.30;;;;;;;;;;4925496;28;20117;-67
2020/12/18 07:40:51;;;;;;;0.43;0.32;;;;;;;;;;4948776;28;20118;-66
2020/12/18 07:43:17;;;;;;;0.00;0.00;;;;;;;;;;4962150;28;20066;-66
2020/12/18 07:45:48;;;;;;;0.00;0.00;;;;;;;;;;4932097;28;20425;-67
2020/12/18 07:48:15;;;;;;;0.70;0.70;;;;;;;;;;4945093;28;20026;-67
2020/12/18 07:50:56;;;;;;;0.10;0.10;;;;;;;;;;4947120;28;20026;-68
2020/12/18 07:53:24;;;;;;;0.00;0.00;;;;;;;;;;4944883;28;20042;-67
2020/12/18 07:56:16;;;;;;;0.00;0.00;;;;;;;;;;4944423;28;20084;-66
2020/12/18 07:58:51;;;;;;;0.60;0.60;;;;;;;;;;4948136;28;20051;-66
2020/12/18 08:01:19;;;;;;;0.00;0.00;;;;;;;;;;4930184;28;20313;-67
2020/12/18 08:03:51;;;;;;;0.20;0.20;;;;;;;;;;4964533;28;20137;-67
2020/12/18 08:06:24;;;;;;;0.00;0.00;;;;;;;;;;4949308;28;20117;-67
2020/12/18 08:09:09;;;;;;;0.00;0.00;;;;;;;;;;4950460;28;20031;-67
2020/12/18 08:11:36;;;;;;;0.10;0.10;;;;;;;;;;4950624;28;20314;-67
2020/12/18 08:14:02;;;;;;;0.30;0.20;;;;;;;;;;4930132;28;20101;-68
2020/12/18 08:16:30;;;;;;;0.10;0.10;;;;;;;;;;4950459;28;20073;-67
2020/12/18 08:19:07;;;;;;;2.90;1.85;;;;;;;;;;4950176;28;20039;-66
2020/12/18 08:21:36;;;;;;;0.95;0.95;;;;;;;;;;4948067;28;20151;-68
2020/12/18 08:24:12;;;;;;;0.00;0.00;;;;;;;;;;4950070;28;20121;-66
2020/12/18 08:30:32;;;;;;;0.00;0.00;;;;;;;;;;4950408;28;20516;-65
2020/12/18 08:33:00;;;;;;;0.40;0.40;;;;;;;;;;4964582;28;20462;-67
2020/12/18 08:35:28;;;;;;;0.00;0.00;;;;;;;;;;4952043;28;20544;-67
2020/12/18 08:38:07;;;;;;;0.10;0.10;;;;;;;;;;4934125;28;20035;-65
2020/12/18 08:40:32;;;;;;;0.00;0.00;;;;;;;;;;4930538;28;20292;-65
2020/12/18 08:43:26;;;;;;;0.20;0.20;;;;;;;;;;4933997;28;20224;-68
2020/12/18 08:45:54;;;;;;;0.50;0.50;;;;;;;;;;4952068;28;20461;-67
2020/12/18 08:48:26;;;;;;;0.00;0.00;;;;;;;;;;4948362;28;20066;-67
2020/12/18 08:50:58;;;;;;;0.30;0.30;;;;;;;;;;4951419;28;20031;-67
2020/12/18 08:53:30;;;;;;;0.00;0.00;;;;;;;;;;4948767;28;20853;-67
2020/12/18 08:56:01;;;;;;;0.05;0.05;;;;;;;;;;4953764;28;20042;-68
2020/12/18 08:58:33;;;;;;;0.45;0.45;;;;;;;;;;4944539;28;20124;-67
2020/12/18 09:00:58;;;;;;;0.13;0.13;;;;;;;;;;4943062;28;20039;-68
2020/12/18 09:03:24;;;;;;;0.00;0.00;;;;;;;;;;4963528;28;20978;-68
2020/12/18 09:05:49;;;;;;;0.00;0.00;;;;;;;;;;4933571;28;20565;-65
2020/12/18 09:08:16;;;;;;;0.00;0.00;;;;;;;;;;4931880;28;20039;-68
2020/12/18 09:10:44;;;;;;;0.00;0.00;;;;;;;;;;4931929;28;20031;-67
2020/12/18 09:13:25;;;;;;;0.43;0.43;;;;;;;;;;4947188;28;20266;-66
2020/12/18 09:15:56;;;;;;;0.00;0.00;;;;;;;;;;4950570;28;20049;-68
2020/12/18 09:18:23;;;;;;;0.00;0.00;;;;;;;;;;4950153;28;20613;-66
2020/12/18 09:20:49;;;;;;;0.65;0.65;;;;;;;;;;4930273;28;20766;-66
2020/12/18 09:23:26;;;;;;;0.43;0.43;;;;;;;;;;4943999;28;20067;-66
2020/12/18 09:25:51;;;;;;;0.10;0.10;;;;;;;;;;4949834;28;20322;-66
2020/12/18 09:28:20;;;;;;;0.00;0.00;;;;;;;;;;4964010;28;20234;-66
2020/12/18 09:30:46;;;;;;;2.60;1.55;;;;;;;;;;4948028;28;20057;-68
2020/12/18 09:33:16;;;;;;;0.30;0.30;;;;;;;;;;4947188;28;20035;-67
2020/12/18 09:35:42;;;;;;;0.10;0.10;;;;;;;;;;4946348;28;20195;-68
2020/12/18 09:38:07;;;;;;;0.55;0.32;;;;;;;;;;4950405;28;20036;-67
2020/12/18 09:40:38;;;;;;;0.15;0.15;;;;;;;;;;4950163;28;20521;-67
2020/12/18 09:43:04;;;;;;;0.00;0.00;;;;;;;;;;4959775;28;20041;-67
2020/12/18 09:45:31;;;;;;;0.70;0.40;;;;;;;;;;4928523;28;20399;-65
2020/12/18 09:47:57;;;;;;;0.00;0.00;;;;;;;;;;4950298;28;20046;-66
2020/12/18 09:50:23;;;;;;;0.52;0.38;;;;;;;;;;4946685;28;21034;-67
2020/12/18 09:52:53;;;;;;;0.30;0.30;;;;;;;;;;4949607;28;20046;-67
2020/12/18 09:55:23;;;;;;;0.00;0.00;;;;;;;;;;4947154;28;20723;-67
2020/12/18 09:57:51;;;;;;;0.20;0.20;;;;;;;;;;4947432;28;20034;-67
2020/12/18 10:00:19;;;;;;;0.00;0.00;;;;;;;;;;4943940;28;20027;-67
2020/12/18 10:02:47;;;;;;;0.17;0.17;;;;;;;;;;4947568;28;20053;-67
2020/12/18 10:05:12;;;;;;;0.05;0.05;;;;;;;;;;4939381;28;20083;-68
2020/12/18 10:07:38;;;;;;;0.13;0.13;;;;;;;;;;4947572;28;20038;-67
2020/12/18 10:10:03;;;;;;;0.00;0.00;;;;;;;;;;4942361;28;20050;-67
2020/12/18 10:12:31;;;;;;;0.43;0.43;;;;;;;;;;4928497;28;20057;-67
2020/12/18 10:14:57;;;;;;;1.10;0.75;;;;;;;;;;4931246;28;20022;-66
2020/12/18 10:17:25;;;;;;;0.35;0.35;;;;;;;;;;4945281;28;20577;-68
2020/12/18 10:19:55;;;;;;;0.08;0.08;;;;;;;;;;4947236;28;20512;-64
2020/12/18 10:22:20;;;;;;;0.57;0.57;;;;;;;;;;4944704;28;20039;-66
2020/12/18 10:24:51;;;;;;;0.00;0.00;;;;;;;;;;4946086;28;20051;-68
2020/12/18 10:27:20;;;;;;;0.00;0.00;;;;;;;;;;4947204;28;20038;-67
2020/12/18 10:29:48;;;;;;;0.00;0.00;;;;;;;;;;4945724;28;20108;-66
2020/12/18 10:32:17;;;;;;;0.15;0.15;;;;;;;;;;4947533;28;20444;-65
2020/12/18 10:34:45;;;;;;;2.60;0.75;;;;;;;;;;4933642;28;20035;-67
2020/12/18 10:37:14;;;;;;;0.00;0.00;;;;;;;;;;4933001;28;20373;-67
2020/12/18 10:39:42;;;;;;;0.10;0.10;;;;;;;;;;4946469;28;20049;-66
2020/12/18 10:42:09;;;;;;;0.00;0.00;;;;;;;;;;4963996;28;20034;-66
2020/12/18 10:44:35;;;;;;;0.75;0.75;;;;;;;;;;4949398;28;20027;-67
2020/12/18 10:47:03;;;;;;;0.00;0.00;;;;;;;;;;4948962;28;20026;-67
2020/12/18 10:49:29;;;;;;;0.00;0.00;;;;;;;;;;4947261;28;20104;-66
2020/12/18 10:51:58;;;;;;;1.50;0.17;;;;;;;;;;4938910;28;20030;-66
2020/12/18 10:54:26;;;;;;;0.05;0.05;;;;;;;;;;4962189;28;20089;-67
2020/12/18 10:56:55;;;;;;;0.10;0.10;;;;;;;;;;4939305;28;20045;-67
2020/12/18 10:59:23;;;;;;;0.00;0.00;;;;;;;;;;4951942;28;20030;-67
2020/12/18 11:01:52;;;;;;;0.03;0.03;;;;;;;;;;4929682;28;20119;-66
2020/12/18 11:04:20;;;;;;;0.00;0.00;;;;;;;;;;4963592;28;20031;-66
2020/12/18 11:06:48;;;;;;;0.10;0.10;;;;;;;;;;4949201;28;20050;-65
2020/12/18 11:09:16;;;;;;;0.10;0.10;;;;;;;;;;4947410;28;20458;-67
2020/12/18 11:11:44;;;;;;;1.55;0.32;;;;;;;;;;4944977;28;20117;-63
2020/12/18 11:14:14;;;;;;;0.45;0.45;;;;;;;;;;4946588;28;20085;-66
2020/12/18 11:16:40;;;;;;;0.85;0.85;;;;;;;;;;4949673;28;20035;-66
2020/12/18 11:19:09;;;;;;;0.15;0.15;;;;;;;;;;4943174;28;20034;-66
2020/12/18 11:21:37;;;;;;;0.68;0.68;;;;;;;;;;4940457;28;20109;-65
2020/12/18 11:24:03;;;;;;;0.55;0.55;;;;;;;;;;4946961;28;20344;-64
2020/12/18 11:26:34;;;;;;;0.03;0.03;;;;;;;;;;4945311;28;20145;-64
2020/12/18 11:28:59;;;;;;;0.35;0.32;;;;;;;;;;4933314;28;20267;-64
2020/12/18 11:31:29;;;;;;;0.00;0.00;;;;;;;;;;4929652;28;20125;-64
2020/12/18 11:33:57;;;;;;;0.00;0.00;;;;;;;;;;4949073;28;20038;-63
2020/12/18 11:36:27;;;;;;;0.00;0.00;;;;;;;;;;4952382;28;20798;-64
2020/12/18 11:38:58;;;;;;;1.70;1.60;;;;;;;;;;4932738;28;20077;-64
2020/12/18 11:41:23;;;;;;;0.25;0.25;;;;;;;;;;4931342;28;20046;-64
2020/12/18 11:43:51;;;;;;;0.00;0.00;;;;;;;;;;4942269;28;20043;-64
2020/12/18 11:46:18;;;;;;;0.70;0.70;;;;;;;;;;4952416;28;20042;-64
2020/12/18 11:48:44;;;;;;;0.10;0.10;;;;;;;;;;4946144;28;20034;-64
2020/12/18 11:51:13;;;;;;;0.10;0.10;;;;;;;;;;4914089;28;20145;-63
2020/12/18 11:53:41;;;;;;;0.15;0.15;;;;;;;;;;4924275;28;20035;-64
2020/12/18 11:56:09;;;;;;;0.20;0.20;;;;;;;;;;4934192;28;20474;-64
2020/12/18 11:58:37;;;;;;;0.15;0.15;;;;;;;;;;4952544;28;20050;-64
2020/12/18 12:01:03;;;;;;;0.20;0.20;;;;;;;;;;4954216;28;20067;-64
2020/12/18 12:03:34;;;;;;;0.00;0.00;;;;;;;;;;4952320;28;20143;-64
2020/12/18 12:06:05;;;;;;;0.17;0.17;;;;;;;;;;4934558;28;20069;-64
2020/12/18 12:08:35;;;;;;;0.30;0.30;;;;;;;;;;4927159;28;20200;-64
2020/12/18 12:11:06;;;;;;;0.13;0.13;;;;;;;;;;4935268;28;20043;-63
2020/12/18 12:13:33;;;;;;;0.35;0.35;;;;;;;;;;4936790;28;20035;-63
2020/12/18 12:16:06;;;;;;;0.40;0.40;;;;;;;;;;4928670;28;21056;-66
2020/12/18 12:18:32;;;;;;;0.90;0.90;;;;;;;;;;4919274;28;20042;-63
2020/12/18 12:20:59;;;;;;;0.52;0.52;;;;;;;;;;4937224;28;20053;-63
2020/12/18 12:23:25;;;;;;;0.05;0.00;;;;;;;;;;4934122;28;20176;-63
2020/12/18 12:25:53;;;;;;;0.00;0.00;;;;;;;;;;4932289;28;20090;-63
2020/12/18 12:28:20;;;;;;;0.10;0.10;;;;;;;;;;4926807;28;20061;-64
2020/12/18 12:30:48;;;;;;;0.55;0.52;;;;;;;;;;4927442;28;20045;-64
2020/12/18 12:33:18;;;;;;;0.55;0.55;;;;;;;;;;4950881;28;20111;-65
2020/12/18 12:35:48;;;;;;;0.10;0.10;;;;;;;;;;4936363;28;20034;-64
2020/12/18 12:38:18;;;;;;;0.10;0.10;;;;;;;;;;4933367;28;20038;-65
2020/12/18 12:40:49;;;;;;;0.40;0.40;;;;;;;;;;4952031;28;20022;-63
2020/12/18 12:43:17;;;;;;;0.17;0.17;;;;;;;;;;4951537;28;20035;-64
2020/12/18 12:45:43;;;;;;;0.45;0.43;;;;;;;;;;4951925;28;20094;-64
2020/12/18 12:48:11;;;;;;;0.22;0.22;;;;;;;;;;4944527;28;20042;-63
2020/12/18 12:50:38;;;;;;;0.08;0.08;;;;;;;;;;4941973;28;20533;-64
2020/12/18 12:53:06;;;;;;;0.28;0.28;;;;;;;;;;4948111;28;20121;-62
2020/12/18 12:55:34;;;;;;;0.47;0.47;;;;;;;;;;4950948;28;20034;-63
2020/12/18 12:58:02;;;;;;;0.00;0.00;;;;;;;;;;4950087;28;20473;-63
2020/12/18 13:00:30;;;;;;;0.00;0.00;;;;;;;;;;4936532;28;20034;-64
2020/12/18 13:03:00;;;;;;;0.20;0.20;;;;;;;;;;4950705;28;20035;-63
2020/12/18 13:05:28;;;;;;;0.00;0.00;;;;;;;;;;4923901;28;20106;-63
2020/12/18 13:07:54;;;;;;;0.03;0.03;;;;;;;;;;4922112;28;20022;-63
2020/12/18 13:10:20;;;;;;;0.17;0.17;;;;;;;;;;4918235;28;20418;-63
2020/12/18 13:12:49;;;;;;;0.40;0.40;;;;;;;;;;4946727;28;20045;-63
2020/12/18 13:15:17;;;;;;;0.20;0.20;;;;;;;;;;4946376;28;20046;-64
2020/12/18 13:17:43;;;;;;;0.10;0.10;;;;;;;;;;4946356;28;20070;-65
2020/12/18 13:20:08;;;;;;;0.30;0.22;;;;;;;;;;4933639;28;20022;-64
2020/12/18 13:22:36;;;;;;;0.00;0.00;;;;;;;;;;4929416;28;20120;-64
2020/12/18 13:25:07;;;;;;;0.17;0.17;;;;;;;;;;4948998;28;20051;-63
2020/12/18 13:27:35;;;;;;;0.10;0.10;;;;;;;;;;4943863;28;20456;-64
2020/12/18 13:30:01;;;;;;;0.10;0.10;;;;;;;;;;4948099;28;20031;-66
2020/12/18 13:32:31;;;;;;;1.45;1.00;;;;;;;;;;4950177;28;20039;-65
2020/12/18 13:35:02;;;;;;;0.00;0.00;;;;;;;;;;4949303;28;20035;-64
2020/12/18 13:37:27;;;;;;;0.35;0.35;;;;;;;;;;4925252;28;20963;-65
2020/12/18 13:39:53;;;;;;;0.00;0.00;;;;;;;;;;4939070;28;20664;-63
2020/12/18 13:42:18;;;;;;;1.27;0.85;;;;;;;;;;4932292;28;20073;-62
2020/12/18 13:44:44;;;;;;;0.05;0.05;;;;;;;;;;4951138;28;20157;-63
2020/12/18 13:47:13;;;;;;;0.30;0.30;;;;;;;;;;4933082;28;20498;-63
2020/12/18 13:49:40;;;;;;;0.47;0.25;;;;;;;;;;4933684;28;21049;-65
2020/12/18 13:52:05;;;;;;;3.90;1.35;;;;;;;;;;4947374;28;20644;-64
2020/12/18 13:54:36;;;;;;;0.00;0.00;;;;;;;;;;4950926;28;20579;-63
2020/12/18 13:57:04;;;;;;;0.00;0.00;;;;;;;;;;4948622;28;20486;-63
2020/12/18 13:59:29;;;;;;;0.10;0.10;;;;;;;;;;4943409;28;20031;-65
2020/12/18 14:02:01;;;;;;;0.00;0.00;;;;;;;;;;4950157;28;20512;-63
2020/12/18 14:04:29;;;;;;;0.00;0.00;;;;;;;;;;4937416;28;20542;-62
2020/12/18 14:07:00;;;;;;;0.00;0.00;;;;;;;;;;4948754;28;20219;-63
2020/12/18 14:09:31;;;;;;;0.10;0.10;;;;;;;;;;4928064;28;20123;-62
2020/12/18 14:12:01;;;;;;;0.40;0.40;;;;;;;;;;4948170;28;20390;-63
2020/12/18 14:14:30;;;;;;;2.13;0.88;;;;;;;;;;4949400;28;20109;-64
2020/12/18 14:16:58;;;;;;;0.17;0.17;;;;;;;;;;4948263;28;20045;-63
2020/12/18 14:19:26;;;;;;;0.00;0.00;;;;;;;;;;4945861;28;20039;-65
2020/12/18 14:21:53;;;;;;;2.15;1.65;;;;;;;;;;4947268;28;20538;-65
2020/12/18 14:24:19;;;;;;;4.75;0.35;;;;;;;;;;4947098;28;20031;-63
2020/12/18 14:26:48;;;;;;;0.00;0.00;;;;;;;;;;4942593;28;20077;-66
2020/12/18 14:29:19;;;;;;;0.00;0.00;;;;;;;;;;4947292;28;21989;-63
2020/12/18 14:31:45;;;;;;;0.00;0.00;;;;;;;;;;4933048;28;20379;-63
2020/12/18 14:34:15;;;;;;;0.00;0.00;;;;;;;;;;4931972;28;20113;-64
2020/12/18 14:36:46;;;;;;;0.40;0.28;;;;;;;;;;4933418;28;20041;-63
2020/12/18 14:39:14;;;;;;;0.00;0.00;;;;;;;;;;4932163;28;20114;-63
2020/12/18 14:41:42;;;;;;;0.00;0.00;;;;;;;;;;4948056;28;20031;-63
2020/12/18 14:44:08;;;;;;;0.00;0.00;;;;;;;;;;4949489;28;20034;-64
2020/12/18 14:46:33;;;;;;;0.10;0.10;;;;;;;;;;4947490;28;20053;-64
2020/12/18 14:48:59;;;;;;;0.00;0.00;;;;;;;;;;4934097;28;20082;-63
2020/12/18 14:51:25;;;;;;;0.22;0.20;;;;;;;;;;4916033;28;20026;-64
2020/12/18 14:53:53;;;;;;;0.00;0.00;;;;;;;;;;4931308;28;20042;-63
2020/12/18 14:56:21;;;;;;;1.65;0.80;;;;;;;;;;4949200;28;20031;-63
2020/12/18 14:58:46;;;;;;;0.20;0.20;;;;;;;;;;4950314;28;20089;-63
2020/12/18 15:01:14;;;;;;;0.32;0.17;;;;;;;;;;4947550;28;20078;-64